Time;durP1;ratioP1;P1;durP2;ratioP2;P2;SDS_P1;SDS_P2;PMS_P1;PMS_P2;Temp;Humidity;BMP_temperature;BMP_pressure;BME280_temperature;BME280_humidity;BME280_pressure;Samples;Min_cycle;Max_cycle;Signal;HPM_P1;HPM_P2
2023/06/01 00:02:54;;;;;;;;;;;;;;;14.83;100.00;95708.03;10347775;28;1920;-69
2023/06/01 00:07:56;;;;;;;;;;;;;;;14.76;100.00;95707.59;10344268;28;2371;-68
2023/06/01 00:12:59;;;;;;;;;;;;;;;14.64;100.00;95716.25;10344400;28;1874;-68
2023/06/01 00:18:02;;;;;;;;;;;;;;;14.55;100.00;95716.13;10346713;28;1938;-68
2023/06/01 00:23:05;;;;;;;;;;;;;;;14.47;100.00;95714.13;10346432;28;1868;-70
2023/06/01 00:28:07;;;;;;;;;;;;;;;14.40;100.00;95713.69;10352977;28;4490;-68
2023/06/01 00:33:10;;;;;;;;;;;;;;;14.33;100.00;95710.56;10347210;28;2176;-69
2023/06/01 00:38:12;;;;;;;;;;;;;;;14.27;100.00;95709.88;10343528;28;1908;-69
2023/06/01 00:43:15;;;;;;;;;;;;;;;14.19;100.00;95699.75;10344301;28;1844;-68
2023/06/01 00:48:17;;;;;;;;;;;;;;;14.19;100.00;95704.34;10346723;28;2015;-68
2023/06/01 00:53:19;;;;;;;;;;;;;;;14.19;100.00;95698.94;10339808;28;2080;-70
2023/06/01 00:58:22;;;;;;;;;;;;;;;14.05;100.00;95702.41;10342864;28;1950;-70
2023/06/01 01:03:25;;;;;;;;;;;;;;;14.09;100.00;95694.50;10343408;28;2405;-69
2023/06/01 01:08:28;;;;;;;;;;;;;;;14.01;100.00;95704.09;10349229;28;1912;-68
2023/06/01 01:13:30;;;;;;;;;;;;;;;14.02;100.00;95694.91;10345348;28;2047;-70
2023/06/01 01:18:33;;;;;;;;;;;;;;;13.94;100.00;95701.00;10343907;28;1979;-70
2023/06/01 01:23:36;;;;;;;;;;;;;;;13.77;100.00;95692.63;10343900;28;1979;-68
2023/06/01 01:28:38;;;;;;;;;;;;;;;13.78;100.00;95688.81;10347736;28;4376;-69
2023/06/01 01:33:40;;;;;;;;;;;;;;;13.69;100.00;95690.59;10347524;28;1952;-70
2023/06/01 01:38:43;;;;;;;;;;;;;;;13.69;100.00;95693.31;10345048;28;1984;-70
2023/06/01 01:43:45;;;;;;;;;;;;;;;13.57;100.00;95688.34;10343552;28;1935;-70
2023/06/01 01:48:47;;;;;;;;;;;;;;;13.65;100.00;95689.59;10342524;28;1891;-70
2023/06/01 01:53:50;;;;;;;;;;;;;;;13.65;100.00;95694.97;10343691;28;1836;-68
2023/06/01 01:58:52;;;;;;;;;;;;;;;13.44;100.00;95695.31;10341886;28;1971;-68
2023/06/01 02:03:56;;;;;;;;;;;;;;;13.36;100.00;95698.69;10350453;28;2114;-68
2023/06/01 02:08:59;;;;;;;;;;;;;;;13.27;100.00;95699.63;10344958;28;2103;-70
2023/06/01 02:14:01;;;;;;;;;;;;;;;13.34;100.00;95700.06;10341186;28;2073;-69
2023/06/01 02:19:04;;;;;;;;;;;;;;;13.20;100.00;95694.56;10342499;28;1879;-70
2023/06/01 02:24:07;;;;;;;;;;;;;;;13.17;100.00;95698.66;10342548;28;2340;-70
2023/06/01 02:29:09;;;;;;;;;;;;;;;13.12;100.00;95692.53;10339326;28;2047;-70
2023/06/01 02:34:12;;;;;;;;;;;;;;;12.98;100.00;95701.34;10341257;28;1848;-69
2023/06/01 02:39:14;;;;;;;;;;;;;;;13.03;100.00;95708.53;10338465;28;1962;-69
2023/06/01 02:44:17;;;;;;;;;;;;;;;12.97;100.00;95688.91;10340687;28;1923;-66
2023/06/01 02:49:19;;;;;;;;;;;;;;;12.99;100.00;95697.53;10343385;28;1960;-68
2023/06/01 02:54:22;;;;;;;;;;;;;;;12.89;100.00;95694.97;10343387;28;1894;-69
2023/06/01 02:59:25;;;;;;;;;;;;;;;12.93;100.00;95689.81;10342181;28;1983;-71
2023/06/01 03:04:28;;;;;;;;;;;;;;;12.98;100.00;95678.94;10339294;28;1968;-70
2023/06/01 03:09:31;;;;;;;;;;;;;;;12.90;100.00;95683.06;10339186;28;1988;-70
2023/06/01 03:14:33;;;;;;;;;;;;;;;13.01;100.00;95686.44;10345010;28;1911;-70
2023/06/01 03:19:36;;;;;;;;;;;;;;;12.99;100.00;95692.16;10339670;28;2329;-70
2023/06/01 03:24:41;;;;;;;;;;;;;;;12.85;100.00;95699.34;10346546;28;1959;-70
2023/06/01 03:29:43;;;;;;;;;;;;;;;12.97;100.00;95696.19;10348000;28;4481;-70
2023/06/01 03:34:46;;;;;;;;;;;;;;;12.92;100.00;95694.41;10347246;28;1931;-70
2023/06/01 03:39:49;;;;;;;;;;;;;;;12.99;100.00;95700.25;10352032;28;2013;-70
2023/06/01 03:44:52;;;;;;;;;;;;;;;13.16;100.00;95694.31;10350999;28;2327;-69
2023/06/01 03:49:54;;;;;;;;;;;;;;;13.32;100.00;95696.84;10353232;28;1981;-70
2023/06/01 03:54:56;;;;;;;;;;;;;;;13.49;100.00;95703.34;10348130;28;1879;-69
2023/06/01 04:00:00;;;;;;;;;;;;;;;13.64;100.00;95694.19;10351693;28;1958;-69
2023/06/01 04:05:07;;;;;;;;;;;;;;;13.84;100.00;95692.25;10351472;28;1880;-69
2023/06/01 04:10:12;;;;;;;;;;;;;;;13.92;100.00;95705.88;10346784;28;2198;-70
2023/06/01 04:15:15;;;;;;;;;;;;;;;14.13;100.00;95700.94;10346642;28;2383;-69
2023/06/01 04:20:17;;;;;;;;;;;;;;;14.45;100.00;95697.38;10348380;28;1848;-70
2023/06/01 04:25:20;;;;;;;;;;;;;;;14.82;100.00;95707.22;10347172;28;2135;-70
2023/06/01 04:30:23;;;;;;;;;;;;;;;15.03;100.00;95696.75;10345081;28;4408;-68
2023/06/01 04:35:26;;;;;;;;;;;;;;;14.94;100.00;95695.84;10349483;28;1896;-68
2023/06/01 04:40:28;;;;;;;;;;;;;;;15.33;100.00;95699.88;10349790;28;1859;-70
2023/06/01 04:45:33;;;;;;;;;;;;;;;15.42;100.00;95687.25;10348735;28;2109;-69
2023/06/01 04:50:36;;;;;;;;;;;;;;;15.91;100.00;95699.91;10342334;28;1975;-68
2023/06/01 04:55:40;;;;;;;;;;;;;;;16.09;100.00;95708.13;10345331;28;1860;-68
2023/06/01 05:00:43;;;;;;;;;;;;;;;15.32;100.00;95701.00;10347028;28;1840;-69
2023/06/01 05:05:45;;;;;;;;;;;;;;;15.94;100.00;95701.19;10342694;28;1861;-69
2023/06/01 05:10:48;;;;;;;;;;;;;;;15.60;100.00;95707.16;10344874;28;2007;-68
2023/06/01 05:15:50;;;;;;;;;;;;;;;15.86;100.00;95708.16;10345538;28;2283;-69
2023/06/01 05:20:53;;;;;;;;;;;;;;;16.22;100.00;95704.53;10347587;28;1887;-69
2023/06/01 05:26:01;;;;;;;;;;;;;;;16.33;100.00;95711.31;10343554;28;1907;-70
2023/06/01 05:31:04;;;;;;;;;;;;;;;16.52;100.00;95707.56;10351090;28;4455;-69
2023/06/01 05:36:07;;;;;;;;;;;;;;;16.78;100.00;95711.22;10344595;28;1853;-69
2023/06/01 05:41:09;;;;;;;;;;;;;;;17.32;100.00;95708.31;10342227;28;1894;-69
2023/06/01 05:46:11;;;;;;;;;;;;;;;17.64;100.00;95710.56;10339418;28;1887;-68
2023/06/01 05:51:14;;;;;;;;;;;;;;;18.08;100.00;95704.00;10339634;28;1973;-69
2023/06/01 05:56:17;;;;;;;;;;;;;;;18.27;100.00;95703.66;10334560;28;1876;-68
2023/06/01 06:01:19;;;;;;;;;;;;;;;17.01;100.00;95707.28;10341458;28;1982;-67
2023/06/01 06:06:22;;;;;;;;;;;;;;;17.45;100.00;95707.38;10334533;28;1903;-69
2023/06/01 06:11:26;;;;;;;;;;;;;;;17.74;100.00;95706.75;10339794;28;2356;-67
2023/06/01 06:16:29;;;;;;;;;;;;;;;17.77;100.00;95708.84;10340648;28;1895;-68
2023/06/01 06:21:31;;;;;;;;;;;;;;;18.21;100.00;95712.31;10340542;28;2012;-69
2023/06/01 06:26:34;;;;;;;;;;;;;;;18.22;100.00;95714.69;10339632;28;4263;-68
2023/06/01 06:31:36;;;;;;;;;;;;;;;18.08;100.00;95708.66;10341391;28;1931;-68
2023/06/01 06:36:38;;;;;;;;;;;;;;;17.97;100.00;95720.97;10344206;28;1839;-68
2023/06/01 06:41:41;;;;;;;;;;;;;;;18.59;100.00;95709.63;10339453;28;1982;-68
2023/06/01 06:46:43;;;;;;;;;;;;;;;19.52;100.00;95705.13;10339950;28;1868;-69
2023/06/01 06:51:46;;;;;;;;;;;;;;;19.59;100.00;95710.88;10341023;28;1918;-69
2023/06/01 06:56:48;;;;;;;;;;;;;;;19.79;100.00;95715.53;10340798;28;1939;-70
2023/06/01 07:01:51;;;;;;;;;;;;;;;20.00;100.00;95709.25;10346002;28;1920;-70
2023/06/01 07:06:53;;;;;;;;;;;;;;;19.47;100.00;95710.78;10345049;28;2295;-69
2023/06/01 07:11:55;;;;;;;;;;;;;;;19.86;100.00;95710.34;10347573;28;2065;-67
2023/06/01 07:16:58;;;;;;;;;;;;;;;19.97;100.00;95711.50;10350162;28;1915;-70
2023/06/01 07:22:01;;;;;;;;;;;;;;;20.06;100.00;95703.25;10349414;28;1867;-66
2023/06/01 07:27:03;;;;;;;;;;;;;;;20.29;100.00;95705.59;10350964;28;4421;-70
2023/06/01 07:32:06;;;;;;;;;;;;;;;20.59;100.00;95709.00;10346666;28;1920;-69
2023/06/01 07:37:08;;;;;;;;;;;;;;;21.41;98.30;95706.97;10349200;28;1896;-69
2023/06/01 07:42:20;;;;;;;;;;;;;;;20.99;97.62;95704.50;10346733;28;1926;-69
2023/06/01 07:47:25;;;;;;;;;;;;;;;20.60;100.00;95705.91;10347764;28;1891;-69
2023/06/01 07:52:27;;;;;;;;;;;;;;;20.91;100.00;95708.13;10347447;28;1985;-68
2023/06/01 07:57:30;;;;;;;;;;;;;;;21.17;98.47;95701.50;10346256;28;2047;-69
2023/06/01 08:02:32;;;;;;;;;;;;;;;21.41;96.52;95700.72;10343899;28;2295;-69
2023/06/01 08:07:35;;;;;;;;;;;;;;;21.74;92.82;95701.31;10347711;28;1887;-69
2023/06/01 08:12:37;;;;;;;;;;;;;;;21.41;93.47;95696.03;10346437;28;1934;-69
2023/06/01 08:17:40;;;;;;;;;;;;;;;21.59;92.00;95691.91;10346661;28;1937;-68
2023/06/01 08:22:42;;;;;;;;;;;;;;;21.59;93.61;95696.56;10345293;28;1864;-68
2023/06/01 08:27:46;;;;;;;;;;;;;;;21.52;96.24;95697.16;10344442;28;4444;-69
2023/06/01 08:32:49;;;;;;;;;;;;;;;21.89;93.46;95699.00;10346031;28;1993;-69
2023/06/01 08:37:52;;;;;;;;;;;;;;;22.12;91.15;95689.09;10342921;28;1906;-69
2023/06/01 08:42:54;;;;;;;;;;;;;;;21.84;92.37;95700.03;10348485;28;1969;-69
2023/06/01 08:47:57;;;;;;;;;;;;;;;21.96;92.91;95689.03;10347324;28;2008;-68
2023/06/01 08:52:59;;;;;;;;;;;;;;;22.36;84.17;95685.44;10347314;28;1907;-69
2023/06/01 08:58:02;;;;;;;;;;;;;;;21.92;92.47;95692.81;10345275;28;2224;-70
2023/06/01 09:03:04;;;;;;;;;;;;;;;22.18;84.16;95686.91;10347048;28;1939;-69
2023/06/01 09:08:07;;;;;;;;;;;;;;;22.44;88.11;95684.50;10343427;28;1939;-69
2023/06/01 09:13:09;;;;;;;;;;;;;;;22.32;85.18;95679.88;10341592;28;1951;-70
2023/06/01 09:18:12;;;;;;;;;;;;;;;23.10;83.97;95683.81;10339950;28;2180;-69
2023/06/01 09:23:15;;;;;;;;;;;;;;;23.27;82.54;95685.38;10341836;28;1950;-69
2023/06/01 09:28:18;;;;;;;;;;;;;;;23.45;82.44;95688.50;10341296;28;4540;-69
2023/06/01 09:33:20;;;;;;;;;;;;;;;23.65;77.69;95681.13;10345895;28;1979;-69
2023/06/01 09:38:22;;;;;;;;;;;;;;;23.46;75.07;95679.91;10338196;28;1904;-69
2023/06/01 09:43:25;;;;;;;;;;;;;;;23.10;73.55;95672.06;10341689;28;1955;-69
2023/06/01 09:48:29;;;;;;;;;;;;;;;23.09;75.24;95675.94;10339370;28;1951;-69
2023/06/01 09:53:31;;;;;;;;;;;;;;;23.51;71.09;95672.56;10342556;28;2418;-69
2023/06/01 09:58:39;;;;;;;;;;;;;;;23.65;69.57;95670.94;10341593;28;1843;-70
2023/06/01 10:03:41;;;;;;;;;;;;;;;23.25;65.11;95664.94;10347713;28;1946;-68
2023/06/01 10:08:45;;;;;;;;;;;;;;;22.75;68.71;95658.25;10342516;28;2014;-69
2023/06/01 10:13:47;;;;;;;;;;;;;;;22.99;69.07;95652.63;10345143;28;1903;-68
2023/06/01 10:18:50;;;;;;;;;;;;;;;23.29;65.04;95649.38;10341949;28;1968;-69
2023/06/01 10:23:52;;;;;;;;;;;;;;;23.49;61.90;95648.25;10344354;28;1929;-69
2023/06/01 10:28:55;;;;;;;;;;;;;;;23.87;61.26;95652.19;10343947;28;1914;-69
2023/06/01 10:33:58;;;;;;;;;;;;;;;24.36;60.07;95651.56;10345916;28;1891;-68
2023/06/01 10:39:00;;;;;;;;;;;;;;;24.30;54.11;95642.00;10331421;28;1832;-67
2023/06/01 10:44:03;;;;;;;;;;;;;;;24.95;52.13;95644.72;10343031;28;2042;-70
2023/06/01 10:49:06;;;;;;;;;;;;;;;25.71;49.03;95633.63;10339780;28;2328;-70
2023/06/01 10:54:09;;;;;;;;;;;;;;;25.82;48.65;95637.31;10341104;28;1859;-69
2023/06/01 10:59:11;;;;;;;;;;;;;;;25.62;46.28;95633.88;10337345;28;2102;-71
2023/06/01 11:04:17;;;;;;;;;;;;;;;25.50;48.22;95621.16;10342252;28;1878;-70
2023/06/01 11:09:20;;;;;;;;;;;;;;;26.02;46.25;95629.66;10339890;28;1914;-69
2023/06/01 11:14:23;;;;;;;;;;;;;;;25.55;46.84;95628.28;10337952;28;1984;-69
2023/06/01 11:19:27;;;;;;;;;;;;;;;27.10;43.15;95611.03;10339585;28;1928;-70
2023/06/01 11:24:30;;;;;;;;;;;;;;;27.24;42.47;95604.00;10344257;28;1859;-70
2023/06/01 11:29:32;;;;;;;;;;;;;;;25.96;44.79;95601.69;10342550;28;2015;-69
2023/06/01 11:34:37;;;;;;;;;;;;;;;25.79;44.54;95599.53;10337758;28;2158;-70
2023/06/01 11:39:40;;;;;;;;;;;;;;;24.93;46.12;95600.28;10339844;28;1937;-69
2023/06/01 11:44:42;;;;;;;;;;;;;;;24.86;45.63;95591.94;10344349;28;1887;-70
2023/06/01 11:49:46;;;;;;;;;;;;;;;24.70;46.75;95595.63;10346132;28;3178;-69
2023/06/01 11:54:51;;;;;;;;;;;;;;;25.00;46.07;95587.44;10349089;28;1689;-70
2023/06/01 11:59:53;;;;;;;;;;;;;;;25.80;45.38;95574.38;10349550;28;1886;-70
2023/06/01 12:04:57;;;;;;;;;;;;;;;25.43;43.79;95576.25;10347974;28;2034;-69
2023/06/01 12:10:00;;;;;;;;;;;;;;;25.31;43.74;95578.06;10345605;28;1895;-70
2023/06/01 12:15:03;;;;;;;;;;;;;;;25.83;43.98;95573.63;10347945;28;1917;-69
2023/06/01 12:20:06;;;;;;;;;;;;;;;25.73;44.18;95565.25;10348077;28;1910;-70
2023/06/01 12:25:09;;;;;;;;;;;;;;;26.00;44.94;95568.66;10348571;28;2152;-69
2023/06/01 12:30:12;;;;;;;;;;;;;;;26.34;42.53;95552.88;10346925;28;4357;-69
2023/06/01 12:35:15;;;;;;;;;;;;;;;25.94;45.42;95559.97;10347543;28;1874;-69
2023/06/01 12:40:17;;;;;;;;;;;;;;;25.60;46.40;95539.91;10347551;28;1880;-70
2023/06/01 12:45:20;;;;;;;;;;;;;;;25.33;48.04;95533.69;10344438;28;2468;-68
2023/06/01 12:50:23;;;;;;;;;;;;;;;25.76;45.66;95534.97;10341025;28;1952;-69
2023/06/01 12:55:25;;;;;;;;;;;;;;;25.66;44.71;95534.84;10343268;28;1968;-70
2023/06/01 13:00:28;;;;;;;;;;;;;;;26.34;43.49;95525.31;10343412;28;1912;-71
2023/06/01 13:05:51;;;;;;;;;;;;;;;26.05;45.06;95527.03;10342331;28;2014;-71
2023/06/01 13:10:53;;;;;;;;;;;;;;;26.04;44.00;95533.72;10344930;28;1981;-71
2023/06/01 13:15:56;;;;;;;;;;;;;;;26.16;43.70;95527.91;10347586;28;1931;-71
2023/06/01 13:20:58;;;;;;;;;;;;;;;26.25;42.02;95520.13;10343645;28;2121;-71
2023/06/01 13:26:01;;;;;;;;;;;;;;;26.29;43.16;95507.16;10345012;28;2152;-70
2023/06/01 13:31:03;;;;;;;;;;;;;;;25.89;41.84;95499.72;10343428;28;4202;-70
2023/06/01 13:36:06;;;;;;;;;;;;;;;26.80;39.59;95498.09;10341600;28;1895;-70
2023/06/01 13:41:08;;;;;;;;;;;;;;;26.86;40.93;95493.03;10345633;28;2209;-70
2023/06/01 13:46:11;;;;;;;;;;;;;;;26.88;41.69;95490.66;10341409;28;1918;-69
2023/06/01 13:51:14;;;;;;;;;;;;;;;27.08;39.52;95485.66;10340097;28;1943;-71
2023/06/01 13:56:17;;;;;;;;;;;;;;;27.44;38.18;95487.41;10345522;28;1855;-71
2023/06/01 14:01:20;;;;;;;;;;;;;;;26.61;39.47;95462.53;10340858;28;2028;-70
2023/06/01 14:06:25;;;;;;;;;;;;;;;27.23;38.47;95461.69;10343963;28;2128;-72
2023/06/01 14:11:28;;;;;;;;;;;;;;;26.35;38.42;95461.56;10343101;28;1891;-70
2023/06/01 14:16:32;;;;;;;;;;;;;;;26.76;38.15;95461.44;10343381;28;1891;-69
2023/06/01 14:21:35;;;;;;;;;;;;;;;26.70;37.85;95451.94;10341782;28;1911;-70
2023/06/01 14:26:39;;;;;;;;;;;;;;;26.71;39.81;95445.25;10345094;28;4388;-71
2023/06/01 14:31:42;;;;;;;;;;;;;;;26.31;38.52;95459.94;10342323;28;1958;-70
2023/06/01 14:36:45;;;;;;;;;;;;;;;26.38;37.64;95460.00;10342980;28;2351;-70
2023/06/01 14:41:49;;;;;;;;;;;;;;;26.56;38.18;95440.84;10340513;28;1888;-69
2023/06/01 14:46:51;;;;;;;;;;;;;;;26.17;38.96;95454.31;10346515;28;1833;-70
2023/06/01 14:51:55;;;;;;;;;;;;;;;26.20;38.29;95443.31;10338238;28;1972;-70
2023/06/01 14:56:57;;;;;;;;;;;;;;;25.98;36.49;95436.88;10343507;28;1852;-70
2023/06/01 15:02:01;;;;;;;;;;;;;;;25.69;37.11;95441.28;10341634;28;1915;-70
2023/06/01 15:07:04;;;;;;;;;;;;;;;26.34;36.76;95426.13;10339005;28;1871;-70
2023/06/01 15:12:07;;;;;;;;;;;;;;;26.79;34.61;95430.34;10341034;28;2115;-70
2023/06/01 15:17:09;;;;;;;;;;;;;;;27.01;33.96;95424.94;10341391;28;1926;-69
2023/06/01 15:22:12;;;;;;;;;;;;;;;26.47;34.27;95426.63;10348957;28;1915;-69
2023/06/01 15:27:15;;;;;;;;;;;;;;;26.30;34.56;95422.53;10349272;28;1913;-69
2023/06/01 15:32:17;;;;;;;;;;;;;;;25.66;37.20;95431.06;10350320;28;2324;-70
2023/06/01 15:37:20;;;;;;;;;;;;;;;25.71;35.79;95427.97;10351041;28;1895;-70
2023/06/01 15:42:23;;;;;;;;;;;;;;;25.56;36.38;95426.22;10348009;28;1922;-70
2023/06/01 15:47:25;;;;;;;;;;;;;;;25.39;37.73;95419.38;10346462;28;1872;-70
2023/06/01 15:52:28;;;;;;;;;;;;;;;25.19;38.82;95429.75;10348376;28;2062;-69
2023/06/01 15:57:30;;;;;;;;;;;;;;;25.50;38.41;95411.22;10342969;28;1887;-69
2023/06/01 16:02:33;;;;;;;;;;;;;;;26.10;37.54;95405.50;10345992;28;2031;-70
2023/06/01 16:07:36;;;;;;;;;;;;;;;26.07;37.78;95406.22;10348322;28;1992;-71
2023/06/01 16:12:39;;;;;;;;;;;;;;;26.14;37.39;95400.78;10350849;28;1946;-71
2023/06/01 16:17:41;;;;;;;;;;;;;;;25.79;38.12;95391.09;10339093;28;2030;-71
2023/06/01 16:22:44;;;;;;;;;;;;;;;26.20;37.01;95392.94;10346097;28;2026;-71
2023/06/01 16:27:46;;;;;;;;;;;;;;;25.51;37.60;95391.59;10344896;28;4341;-70
2023/06/01 16:32:48;;;;;;;;;;;;;;;25.02;39.48;95397.34;10352010;28;1979;-70
2023/06/01 16:37:52;;;;;;;;;;;;;;;24.94;39.92;95384.66;10348266;28;1975;-70
2023/06/01 16:42:55;;;;;;;;;;;;;;;24.84;39.91;95390.84;10346961;28;1954;-70
2023/06/01 16:47:57;;;;;;;;;;;;;;;24.93;39.36;95388.56;10349126;28;1882;-70
2023/06/01 16:53:00;;;;;;;;;;;;;;;25.25;37.46;95384.25;10341601;28;1976;-70
2023/06/01 16:58:02;;;;;;;;;;;;;;;25.01;38.82;95382.00;10346057;28;1910;-70
2023/06/01 17:03:05;;;;;;;;;;;;;;;24.58;40.05;95389.72;10345313;28;1983;-70
2023/06/01 17:08:07;;;;;;;;;;;;;;;24.49;40.67;95391.94;10343370;28;1853;-70
2023/06/01 17:13:10;;;;;;;;;;;;;;;24.37;38.73;95392.19;10345409;28;1994;-69
2023/06/01 17:18:13;;;;;;;;;;;;;;;24.33;39.90;95389.38;10341698;28;1888;-70
2023/06/01 17:23:16;;;;;;;;;;;;;;;23.96;37.91;95391.94;10346837;28;1963;-71
2023/06/01 17:28:19;;;;;;;;;;;;;;;23.85;38.11;95394.53;10348014;28;2188;-69
2023/06/01 17:33:22;;;;;;;;;;;;;;;23.94;38.77;95394.28;10344397;28;2039;-69
2023/06/01 17:38:24;;;;;;;;;;;;;;;23.86;39.92;95387.91;10336861;28;1879;-70
2023/06/01 17:43:27;;;;;;;;;;;;;;;23.71;40.21;95384.09;10343472;28;1995;-70
2023/06/01 17:48:29;;;;;;;;;;;;;;;23.58;41.28;95388.16;10348127;28;1979;-70
2023/06/01 17:53:32;;;;;;;;;;;;;;;23.51;42.05;95390.78;10337791;28;2009;-70
2023/06/01 17:58:44;;;;;;;;;;;;;;;23.22;42.93;95386.75;10345063;28;1977;-69
2023/06/01 18:03:46;;;;;;;;;;;;;;;22.85;44.11;95389.16;10344695;28;1908;-69
2023/06/01 18:08:49;;;;;;;;;;;;;;;22.69;45.02;95383.75;10346962;28;1903;-70
2023/06/01 18:13:51;;;;;;;;;;;;;;;22.50;46.00;95390.00;10343983;28;1927;-69
2023/06/01 18:18:54;;;;;;;;;;;;;;;22.36;47.37;95379.56;10344004;28;2351;-70
2023/06/01 18:23:57;;;;;;;;;;;;;;;22.24;48.69;95392.56;10346069;28;2035;-70
2023/06/01 18:28:59;;;;;;;;;;;;;;;22.08;50.41;95392.59;10346822;28;4558;-70
2023/06/01 18:34:02;;;;;;;;;;;;;;;21.92;51.37;95387.13;10342728;28;1990;-71
2023/06/01 18:39:07;;;;;;;;;;;;;;;21.72;53.69;95390.94;10345339;28;1892;-71
2023/06/01 18:44:09;;;;;;;;;;;;;;;21.59;55.23;95404.72;10344133;28;2081;-70
2023/06/01 18:49:12;;;;;;;;;;;;;;;21.42;58.15;95396.84;10341689;28;1887;-69
2023/06/01 18:54:15;;;;;;;;;;;;;;;21.20;62.26;95398.22;10350039;28;2253;-71
2023/06/01 18:59:18;;;;;;;;;;;;;;;21.05;65.26;95410.69;10356694;28;1895;-70
2023/06/01 19:04:20;;;;;;;;;;;;;;;20.85;69.79;95405.44;10355142;28;1955;-70
2023/06/01 19:09:23;;;;;;;;;;;;;;;20.65;74.24;95416.22;10357292;28;2335;-70
2023/06/01 19:14:25;;;;;;;;;;;;;;;20.48;76.10;95409.09;10350180;28;2077;-70
2023/06/01 19:19:28;;;;;;;;;;;;;;;20.38;78.27;95415.00;10349544;28;2224;-71
2023/06/01 19:24:30;;;;;;;;;;;;;;;20.29;80.65;95422.53;10351192;28;1891;-71
2023/06/01 19:29:34;;;;;;;;;;;;;;;20.24;81.40;95420.06;10353553;28;4504;-71
2023/06/01 19:34:36;;;;;;;;;;;;;;;20.14;83.40;95425.97;10353086;28;1900;-71
2023/06/01 19:39:39;;;;;;;;;;;;;;;20.14;85.81;95432.22;10351139;28;1912;-72
2023/06/01 19:44:41;;;;;;;;;;;;;;;19.95;87.80;95424.63;10349647;28;1922;-71
2023/06/01 19:49:48;;;;;;;;;;;;;;;19.91;88.92;95434.63;10352562;28;1955;-71
2023/06/01 19:54:50;;;;;;;;;;;;;;;19.87;87.42;95424.75;10352129;28;1971;-71
2023/06/01 19:59:54;;;;;;;;;;;;;;;19.79;86.83;95426.44;10349059;28;1911;-73
2023/06/01 20:04:56;;;;;;;;;;;;;;;19.71;88.06;95430.06;10348643;28;2018;-73
2023/06/01 20:09:59;;;;;;;;;;;;;;;19.60;89.09;95434.41;10349099;28;1936;-70
2023/06/01 20:15:01;;;;;;;;;;;;;;;19.52;90.01;95437.97;10349967;28;2309;-73
2023/06/01 20:20:03;;;;;;;;;;;;;;;19.43;90.75;95430.69;10347966;28;1932;-70
2023/06/01 20:25:06;;;;;;;;;;;;;;;19.38;92.09;95427.38;10348428;28;1918;-71
2023/06/01 20:30:08;;;;;;;;;;;;;;;19.30;93.57;95437.25;10344912;28;4473;-68
2023/06/01 20:35:11;;;;;;;;;;;;;;;19.24;93.48;95422.25;10351507;28;1985;-69
2023/06/01 20:40:13;;;;;;;;;;;;;;;19.11;95.08;95429.59;10348265;28;1915;-71
2023/06/01 20:45:15;;;;;;;;;;;;;;;19.06;94.73;95423.56;10350073;28;1895;-71
2023/06/01 20:50:18;;;;;;;;;;;;;;;19.01;97.43;95424.56;10345801;28;2094;-71
2023/06/01 20:55:21;;;;;;;;;;;;;;;18.85;96.82;95424.41;10348356;28;2138;-71
2023/06/01 21:00:23;;;;;;;;;;;;;;;18.89;100.00;95422.63;10341624;28;1966;-71
2023/06/01 21:05:25;;;;;;;;;;;;;;;18.89;99.41;95424.50;10346420;28;1960;-69
2023/06/01 21:10:28;;;;;;;;;;;;;;;18.89;100.00;95428.06;10351226;28;2407;-69
2023/06/01 21:15:31;;;;;;;;;;;;;;;18.79;100.00;95420.28;10349780;28;1946;-70
2023/06/01 21:20:33;;;;;;;;;;;;;;;18.86;100.00;95423.25;10345278;28;1939;-71
2023/06/01 21:25:36;;;;;;;;;;;;;;;18.87;100.00;95413.97;10345986;28;1995;-69
2023/06/01 21:30:38;;;;;;;;;;;;;;;18.79;100.00;95423.00;10341562;28;1914;-70
2023/06/01 21:35:40;;;;;;;;;;;;;;;18.77;100.00;95419.84;10340300;28;1984;-69
2023/06/01 21:40:43;;;;;;;;;;;;;;;18.68;100.00;95427.28;10338250;28;1926;-71
2023/06/01 21:45:45;;;;;;;;;;;;;;;18.64;100.00;95431.78;10333637;28;1904;-70
2023/06/01 21:50:48;;;;;;;;;;;;;;;18.51;100.00;95428.19;10336814;28;2136;-71
2023/06/01 21:55:50;;;;;;;;;;;;;;;18.53;100.00;95423.22;10336477;28;1995;-70
2023/06/01 22:00:53;;;;;;;;;;;;;;;18.14;100.00;95418.22;10338154;28;1765;-69
2023/06/01 22:05:56;;;;;;;;;;;;;;;18.01;100.00;95430.94;10334650;28;1855;-71
2023/06/01 22:10:58;;;;;;;;;;;;;;;17.99;100.00;95428.53;10344917;28;1934;-70
2023/06/01 22:16:01;;;;;;;;;;;;;;;17.81;100.00;95418.88;10341792;28;1977;-69
2023/06/01 22:21:04;;;;;;;;;;;;;;;17.82;100.00;95415.84;10344951;28;1860;-69
2023/06/01 22:26:07;;;;;;;;;;;;;;;17.76;100.00;95408.19;10342917;28;1923;-69
2023/06/01 22:31:11;;;;;;;;;;;;;;;17.83;100.00;95414.72;10340941;28;4849;-69
2023/06/01 22:36:13;;;;;;;;;;;;;;;17.79;100.00;95412.97;10342727;28;1930;-72
2023/06/01 22:41:20;;;;;;;;;;;;;;;17.68;100.00;95415.22;10342497;28;1867;-70
2023/06/01 22:46:22;;;;;;;;;;;;;;;17.68;100.00;95414.44;10340177;28;1894;-69
2023/06/01 22:51:26;;;;;;;;;;;;;;;17.65;100.00;95421.31;10332361;28;1919;-69
2023/06/01 22:56:29;;;;;;;;;;;;;;;17.63;100.00;95423.59;10341774;28;1936;-69
2023/06/01 23:01:31;;;;;;;;;;;;;;;17.59;100.00;95427.28;10337668;28;2256;-71
2023/06/01 23:06:34;;;;;;;;;;;;;;;17.52;100.00;95425.06;10339716;28;1891;-69
2023/06/01 23:11:36;;;;;;;;;;;;;;;17.27;100.00;95421.31;10340572;28;1855;-70
2023/06/01 23:16:39;;;;;;;;;;;;;;;17.18;100.00;95429.50;10340881;28;1956;-71
2023/06/01 23:21:43;;;;;;;;;;;;;;;17.18;100.00;95431.41;10340311;28;1907;-70
2023/06/01 23:26:46;;;;;;;;;;;;;;;16.88;100.00;95416.94;10338974;28;4435;-70
2023/06/01 23:31:49;;;;;;;;;;;;;;;16.99;100.00;95407.34;10340874;28;1891;-70
2023/06/01 23:36:55;;;;;;;;;;;;;;;17.13;100.00;95412.56;10340749;28;2133;-70
2023/06/01 23:41:58;;;;;;;;;;;;;;;16.97;100.00;95412.28;10349904;28;1919;-70
2023/06/01 23:47:00;;;;;;;;;;;;;;;17.02;100.00;95417.53;10353245;28;1935;-70
2023/06/01 23:52:03;;;;;;;;;;;;;;;16.81;100.00;95408.50;10352683;28;1942;-70
2023/06/01 23:57:07;;;;;;;;;;;;;;;16.70;100.00;95413.44;10348677;28;2363;-70
